sensor_id;sensor_type;location;lat;lon;timestamp;P1;durP1;ratioP1;P2;durP2;ratioP2
37459;SDS011;23318;50.966;5.284;2023-06-04T00:00:42;4.05;;;1.55;;
37459;SDS011;23318;50.966;5.284;2023-06-04T00:03:08;4.07;;;1.33;;
37459;SDS011;23318;50.966;5.284;2023-06-04T00:05:33;3.28;;;1.20;;
37459;SDS011;23318;50.966;5.284;2023-06-04T00:07:59;5.88;;;1.30;;
37459;SDS011;23318;50.966;5.284;2023-06-04T00:10:25;4.75;;;1.38;;
37459;SDS011;23318;50.966;5.284;2023-06-04T00:12:50;1.67;;;1.20;;
37459;SDS011;23318;50.966;5.284;2023-06-04T00:15:16;2.13;;;1.40;;
37459;SDS011;23318;50.966;5.284;2023-06-04T00:17:42;4.93;;;1.50;;
37459;SDS011;23318;50.966;5.284;2023-06-04T00:20:08;4.28;;;1.25;;
37459;SDS011;23318;50.966;5.284;2023-06-04T00:22:35;1.83;;;1.20;;
37459;SDS011;23318;50.966;5.284;2023-06-04T00:25:00;7.97;;;1.35;;
37459;SDS011;23318;50.966;5.284;2023-06-04T00:27:26;3.08;;;1.40;;
37459;SDS011;23318;50.966;5.284;2023-06-04T00:29:52;5.97;;;1.40;;
37459;SDS011;23318;50.966;5.284;2023-06-04T00:32:18;8.63;;;1.65;;
37459;SDS011;23318;50.966;5.284;2023-06-04T00:34:49;2.55;;;1.50;;
37459;SDS011;23318;50.966;5.284;2023-06-04T00:37:16;3.90;;;1.52;;
37459;SDS011;23318;50.966;5.284;2023-06-04T00:39:42;2.38;;;1.42;;
37459;SDS011;23318;50.966;5.284;2023-06-04T00:42:07;9.60;;;1.83;;
37459;SDS011;23318;50.966;5.284;2023-06-04T00:44:33;5.18;;;1.70;;
37459;SDS011;23318;50.966;5.284;2023-06-04T00:46:59;7.47;;;1.70;;
37459;SDS011;23318;50.966;5.284;2023-06-04T00:49:25;7.10;;;1.48;;
37459;SDS011;23318;50.966;5.284;2023-06-04T00:51:50;3.72;;;1.77;;
37459;SDS011;23318;50.966;5.284;2023-06-04T00:54:17;3.70;;;1.67;;
37459;SDS011;23318;50.966;5.284;2023-06-04T00:56:45;4.18;;;1.40;;
37459;SDS011;23318;50.966;5.284;2023-06-04T00:59:13;2.35;;;1.40;;
37459;SDS011;23318;50.966;5.284;2023-06-04T01:07:18;6.35;;;1.58;;
37459;SDS011;23318;50.966;5.284;2023-06-04T01:09:45;2.42;;;1.33;;
37459;SDS011;23318;50.966;5.284;2023-06-04T01:12:11;4.25;;;1.50;;
37459;SDS011;23318;50.966;5.284;2023-06-04T01:14:37;2.10;;;1.45;;
37459;SDS011;23318;50.966;5.284;2023-06-04T01:22:56;3.38;;;1.92;;
37459;SDS011;23318;50.966;5.284;2023-06-04T01:25:11;4.40;;;1.48;;
37459;SDS011;23318;50.966;5.284;2023-06-04T01:27:49;2.72;;;1.40;;
37459;SDS011;23318;50.966;5.284;2023-06-04T01:30:18;3.60;;;1.40;;
37459;SDS011;23318;50.966;5.284;2023-06-04T01:32:55;5.32;;;1.65;;
37459;SDS011;23318;50.966;5.284;2023-06-04T01:35:21;2.78;;;1.55;;
37459;SDS011;23318;50.966;5.284;2023-06-04T01:37:47;4.07;;;1.50;;
37459;SDS011;23318;50.966;5.284;2023-06-04T01:40:13;3.95;;;1.60;;
37459;SDS011;23318;50.966;5.284;2023-06-04T01:42:40;8.90;;;1.70;;
37459;SDS011;23318;50.966;5.284;2023-06-04T01:45:07;3.13;;;1.80;;
37459;SDS011;23318;50.966;5.284;2023-06-04T01:47:33;6.57;;;1.55;;
37459;SDS011;23318;50.966;5.284;2023-06-04T01:50:00;8.57;;;1.63;;
37459;SDS011;23318;50.966;5.284;2023-06-04T01:52:26;3.58;;;1.98;;
37459;SDS011;23318;50.966;5.284;2023-06-04T01:54:52;7.10;;;1.83;;
37459;SDS011;23318;50.966;5.284;2023-06-04T01:57:20;3.42;;;1.75;;
37459;SDS011;23318;50.966;5.284;2023-06-04T01:59:48;3.47;;;2.00;;
37459;SDS011;23318;50.966;5.284;2023-06-04T02:02:15;3.92;;;1.60;;
37459;SDS011;23318;50.966;5.284;2023-06-04T02:04:41;3.00;;;2.00;;
37459;SDS011;23318;50.966;5.284;2023-06-04T02:07:10;3.33;;;1.85;;
37459;SDS011;23318;50.966;5.284;2023-06-04T02:09:42;3.65;;;2.15;;
37459;SDS011;23318;50.966;5.284;2023-06-04T02:12:08;3.05;;;1.73;;
37459;SDS011;23318;50.966;5.284;2023-06-04T02:14:34;2.80;;;1.80;;
37459;SDS011;23318;50.966;5.284;2023-06-04T02:17:00;6.63;;;2.63;;
37459;SDS011;23318;50.966;5.284;2023-06-04T02:19:26;3.80;;;2.13;;
37459;SDS011;23318;50.966;5.284;2023-06-04T02:21:55;4.53;;;2.03;;
37459;SDS011;23318;50.966;5.284;2023-06-04T02:24:21;6.32;;;2.83;;
37459;SDS011;23318;50.966;5.284;2023-06-04T02:26:47;7.80;;;2.08;;
37459;SDS011;23318;50.966;5.284;2023-06-04T02:29:12;6.63;;;2.20;;
37459;SDS011;23318;50.966;5.284;2023-06-04T02:31:38;3.15;;;2.25;;
37459;SDS011;23318;50.966;5.284;2023-06-04T02:34:04;2.58;;;1.73;;
37459;SDS011;23318;50.966;5.284;2023-06-04T02:36:29;8.45;;;2.20;;
37459;SDS011;23318;50.966;5.284;2023-06-04T02:38:55;7.15;;;2.33;;
37459;SDS011;23318;50.966;5.284;2023-06-04T02:41:21;6.60;;;2.47;;
37459;SDS011;23318;50.966;5.284;2023-06-04T02:43:48;4.35;;;2.00;;
37459;SDS011;23318;50.966;5.284;2023-06-04T02:46:14;3.83;;;2.00;;
37459;SDS011;23318;50.966;5.284;2023-06-04T02:48:40;5.63;;;2.00;;
37459;SDS011;23318;50.966;5.284;2023-06-04T02:51:06;6.28;;;2.60;;
37459;SDS011;23318;50.966;5.284;2023-06-04T02:53:35;4.35;;;2.10;;
37459;SDS011;23318;50.966;5.284;2023-06-04T02:56:03;4.18;;;1.80;;
37459;SDS011;23318;50.966;5.284;2023-06-04T02:58:29;5.25;;;1.90;;
37459;SDS011;23318;50.966;5.284;2023-06-04T03:00:56;2.90;;;2.00;;
37459;SDS011;23318;50.966;5.284;2023-06-04T03:03:22;3.63;;;1.75;;
37459;SDS011;23318;50.966;5.284;2023-06-04T03:05:47;2.55;;;2.22;;
37459;SDS011;23318;50.966;5.284;2023-06-04T03:08:14;5.93;;;2.00;;
37459;SDS011;23318;50.966;5.284;2023-06-04T03:10:40;2.35;;;1.83;;
37459;SDS011;23318;50.966;5.284;2023-06-04T03:13:06;8.80;;;2.30;;
37459;SDS011;23318;50.966;5.284;2023-06-04T03:15:31;4.05;;;1.77;;
37459;SDS011;23318;50.966;5.284;2023-06-04T03:17:57;2.80;;;2.00;;
37459;SDS011;23318;50.966;5.284;2023-06-04T03:20:23;4.10;;;2.28;;
37459;SDS011;23318;50.966;5.284;2023-06-04T03:22:49;3.63;;;2.30;;
37459;SDS011;23318;50.966;5.284;2023-06-04T03:25:16;3.65;;;1.85;;
37459;SDS011;23318;50.966;5.284;2023-06-04T03:27:41;6.18;;;2.10;;
37459;SDS011;23318;50.966;5.284;2023-06-04T03:30:07;2.72;;;2.20;;
37459;SDS011;23318;50.966;5.284;2023-06-04T03:32:33;4.20;;;2.03;;
37459;SDS011;23318;50.966;5.284;2023-06-04T03:35:00;3.28;;;1.95;;
37459;SDS011;23318;50.966;5.284;2023-06-04T03:37:26;4.63;;;1.98;;
37459;SDS011;23318;50.966;5.284;2023-06-04T03:39:52;6.75;;;2.00;;
37459;SDS011;23318;50.966;5.284;2023-06-04T03:42:18;4.00;;;2.05;;
37459;SDS011;23318;50.966;5.284;2023-06-04T03:44:44;3.20;;;1.90;;
37459;SDS011;23318;50.966;5.284;2023-06-04T03:47:11;3.80;;;1.95;;
37459;SDS011;23318;50.966;5.284;2023-06-04T03:49:36;5.28;;;2.40;;
37459;SDS011;23318;50.966;5.284;2023-06-04T03:52:02;6.55;;;2.40;;
37459;SDS011;23318;50.966;5.284;2023-06-04T03:54:28;4.25;;;2.42;;
37459;SDS011;23318;50.966;5.284;2023-06-04T03:56:53;4.57;;;2.20;;
37459;SDS011;23318;50.966;5.284;2023-06-04T03:59:19;4.70;;;2.30;;
37459;SDS011;23318;50.966;5.284;2023-06-04T04:01:45;4.05;;;2.40;;
37459;SDS011;23318;50.966;5.284;2023-06-04T04:04:10;2.63;;;2.08;;
37459;SDS011;23318;50.966;5.284;2023-06-04T04:06:36;6.15;;;2.47;;
37459;SDS011;23318;50.966;5.284;2023-06-04T04:09:02;5.68;;;2.20;;
37459;SDS011;23318;50.966;5.284;2023-06-04T04:11:29;3.58;;;2.17;;
37459;SDS011;23318;50.966;5.284;2023-06-04T04:13:56;6.05;;;2.25;;
37459;SDS011;23318;50.966;5.284;2023-06-04T04:16:22;3.03;;;2.33;;
37459;SDS011;23318;50.966;5.284;2023-06-04T04:18:47;5.22;;;2.30;;
37459;SDS011;23318;50.966;5.284;2023-06-04T04:21:13;7.22;;;2.55;;
37459;SDS011;23318;50.966;5.284;2023-06-04T04:23:39;2.92;;;2.00;;
37459;SDS011;23318;50.966;5.284;2023-06-04T04:26:05;9.90;;;2.60;;
37459;SDS011;23318;50.966;5.284;2023-06-04T04:28:31;7.25;;;2.95;;
37459;SDS011;23318;50.966;5.284;2023-06-04T04:31:00;6.30;;;2.38;;
37459;SDS011;23318;50.966;5.284;2023-06-04T04:33:27;4.60;;;2.33;;
37459;SDS011;23318;50.966;5.284;2023-06-04T04:35:57;6.75;;;2.15;;
37459;SDS011;23318;50.966;5.284;2023-06-04T04:38:24;6.43;;;2.20;;
37459;SDS011;23318;50.966;5.284;2023-06-04T04:40:50;9.82;;;2.35;;
37459;SDS011;23318;50.966;5.284;2023-06-04T04:43:19;6.05;;;2.60;;
37459;SDS011;23318;50.966;5.284;2023-06-04T04:45:57;6.03;;;2.75;;
37459;SDS011;23318;50.966;5.284;2023-06-04T04:48:23;4.53;;;2.60;;
37459;SDS011;23318;50.966;5.284;2023-06-04T04:50:50;6.20;;;2.33;;
37459;SDS011;23318;50.966;5.284;2023-06-04T04:53:16;7.25;;;3.28;;
37459;SDS011;23318;50.966;5.284;2023-06-04T04:55:41;2.83;;;2.10;;
37459;SDS011;23318;50.966;5.284;2023-06-04T04:58:07;4.82;;;2.72;;
37459;SDS011;23318;50.966;5.284;2023-06-04T05:00:33;6.80;;;2.63;;
37459;SDS011;23318;50.966;5.284;2023-06-04T05:02:58;6.90;;;2.28;;
37459;SDS011;23318;50.966;5.284;2023-06-04T05:05:24;6.82;;;2.50;;
37459;SDS011;23318;50.966;5.284;2023-06-04T05:07:50;6.30;;;2.85;;
37459;SDS011;23318;50.966;5.284;2023-06-04T05:10:16;4.63;;;2.50;;
37459;SDS011;23318;50.966;5.284;2023-06-04T05:12:52;4.57;;;2.47;;
37459;SDS011;23318;50.966;5.284;2023-06-04T05:15:26;4.68;;;2.65;;
37459;SDS011;23318;50.966;5.284;2023-06-04T05:17:52;5.15;;;2.45;;
37459;SDS011;23318;50.966;5.284;2023-06-04T05:20:19;4.43;;;2.50;;
37459;SDS011;23318;50.966;5.284;2023-06-04T05:22:46;6.80;;;2.65;;
37459;SDS011;23318;50.966;5.284;2023-06-04T05:25:11;5.72;;;2.55;;
37459;SDS011;23318;50.966;5.284;2023-06-04T05:27:37;9.30;;;2.88;;
37459;SDS011;23318;50.966;5.284;2023-06-04T05:30:05;3.00;;;2.35;;
37459;SDS011;23318;50.966;5.284;2023-06-04T05:32:32;7.07;;;2.95;;
37459;SDS011;23318;50.966;5.284;2023-06-04T05:34:58;10.55;;;3.58;;
37459;SDS011;23318;50.966;5.284;2023-06-04T05:37:24;3.92;;;2.47;;
37459;SDS011;23318;50.966;5.284;2023-06-04T05:39:53;6.88;;;2.85;;
37459;SDS011;23318;50.966;5.284;2023-06-04T05:42:22;5.95;;;2.55;;
37459;SDS011;23318;50.966;5.284;2023-06-04T05:44:48;5.03;;;2.95;;
37459;SDS011;23318;50.966;5.284;2023-06-04T05:47:15;9.65;;;3.00;;
37459;SDS011;23318;50.966;5.284;2023-06-04T05:49:44;4.97;;;2.53;;
37459;SDS011;23318;50.966;5.284;2023-06-04T05:52:09;4.28;;;2.97;;
37459;SDS011;23318;50.966;5.284;2023-06-04T05:54:35;9.02;;;2.72;;
37459;SDS011;23318;50.966;5.284;2023-06-04T05:57:03;6.78;;;2.80;;
37459;SDS011;23318;50.966;5.284;2023-06-04T05:59:29;6.50;;;2.30;;
37459;SDS011;23318;50.966;5.284;2023-06-04T06:01:55;5.93;;;2.78;;
37459;SDS011;23318;50.966;5.284;2023-06-04T06:04:21;8.18;;;2.97;;
37459;SDS011;23318;50.966;5.284;2023-06-04T06:06:47;5.60;;;2.85;;
37459;SDS011;23318;50.966;5.284;2023-06-04T06:09:13;5.85;;;2.25;;
37459;SDS011;23318;50.966;5.284;2023-06-04T06:11:40;6.68;;;2.40;;
37459;SDS011;23318;50.966;5.284;2023-06-04T06:14:06;5.47;;;3.10;;
37459;SDS011;23318;50.966;5.284;2023-06-04T06:16:32;4.90;;;2.70;;
37459;SDS011;23318;50.966;5.284;2023-06-04T06:18:58;3.30;;;2.33;;
37459;SDS011;23318;50.966;5.284;2023-06-04T06:21:23;3.72;;;2.20;;
37459;SDS011;23318;50.966;5.284;2023-06-04T06:23:50;12.48;;;3.20;;
37459;SDS011;23318;50.966;5.284;2023-06-04T06:26:16;6.85;;;2.50;;
37459;SDS011;23318;50.966;5.284;2023-06-04T06:28:42;8.68;;;2.55;;
37459;SDS011;23318;50.966;5.284;2023-06-04T06:31:07;4.75;;;2.13;;
37459;SDS011;23318;50.966;5.284;2023-06-04T06:33:33;5.07;;;2.58;;
37459;SDS011;23318;50.966;5.284;2023-06-04T06:36:01;5.07;;;2.88;;
37459;SDS011;23318;50.966;5.284;2023-06-04T06:38:27;5.97;;;3.03;;
37459;SDS011;23318;50.966;5.284;2023-06-04T06:40:53;4.30;;;2.60;;
37459;SDS011;23318;50.966;5.284;2023-06-04T06:43:18;6.13;;;2.80;;
37459;SDS011;23318;50.966;5.284;2023-06-04T06:45:44;5.90;;;2.58;;
37459;SDS011;23318;50.966;5.284;2023-06-04T06:48:10;4.50;;;2.63;;
37459;SDS011;23318;50.966;5.284;2023-06-04T06:50:36;6.57;;;2.75;;
37459;SDS011;23318;50.966;5.284;2023-06-04T06:53:02;7.93;;;2.22;;
37459;SDS011;23318;50.966;5.284;2023-06-04T06:55:28;3.97;;;2.47;;
37459;SDS011;23318;50.966;5.284;2023-06-04T06:57:53;8.52;;;2.72;;
37459;SDS011;23318;50.966;5.284;2023-06-04T07:00:19;11.60;;;3.20;;
37459;SDS011;23318;50.966;5.284;2023-06-04T07:02:45;5.70;;;2.67;;
37459;SDS011;23318;50.966;5.284;2023-06-04T07:05:11;6.95;;;2.50;;
37459;SDS011;23318;50.966;5.284;2023-06-04T07:07:39;4.15;;;2.22;;
37459;SDS011;23318;50.966;5.284;2023-06-04T07:10:05;9.02;;;2.40;;
37459;SDS011;23318;50.966;5.284;2023-06-04T07:12:30;5.28;;;2.42;;
37459;SDS011;23318;50.966;5.284;2023-06-04T07:14:56;5.88;;;2.50;;
37459;SDS011;23318;50.966;5.284;2023-06-04T07:17:22;6.07;;;2.58;;
37459;SDS011;23318;50.966;5.284;2023-06-04T07:19:47;6.57;;;2.60;;
37459;SDS011;23318;50.966;5.284;2023-06-04T07:22:13;7.68;;;2.60;;
37459;SDS011;23318;50.966;5.284;2023-06-04T07:24:41;4.68;;;2.40;;
37459;SDS011;23318;50.966;5.284;2023-06-04T07:27:13;8.43;;;1.98;;
37459;SDS011;23318;50.966;5.284;2023-06-04T07:29:40;6.22;;;2.15;;
37459;SDS011;23318;50.966;5.284;2023-06-04T07:32:07;5.43;;;2.47;;
37459;SDS011;23318;50.966;5.284;2023-06-04T07:34:33;6.32;;;2.30;;
37459;SDS011;23318;50.966;5.284;2023-06-04T07:36:59;9.07;;;2.53;;
37459;SDS011;23318;50.966;5.284;2023-06-04T07:39:25;5.57;;;2.38;;
37459;SDS011;23318;50.966;5.284;2023-06-04T07:41:51;7.30;;;2.50;;
37459;SDS011;23318;50.966;5.284;2023-06-04T07:44:16;7.20;;;2.42;;
37459;SDS011;23318;50.966;5.284;2023-06-04T07:46:42;7.55;;;2.25;;
37459;SDS011;23318;50.966;5.284;2023-06-04T07:49:08;3.90;;;2.33;;
37459;SDS011;23318;50.966;5.284;2023-06-04T07:51:34;3.25;;;1.90;;
37459;SDS011;23318;50.966;5.284;2023-06-04T07:54:00;6.82;;;2.40;;
37459;SDS011;23318;50.966;5.284;2023-06-04T07:56:27;8.35;;;2.20;;
37459;SDS011;23318;50.966;5.284;2023-06-04T07:58:52;5.05;;;2.33;;
37459;SDS011;23318;50.966;5.284;2023-06-04T08:01:18;5.88;;;2.20;;
37459;SDS011;23318;50.966;5.284;2023-06-04T08:03:44;4.88;;;2.13;;
37459;SDS011;23318;50.966;5.284;2023-06-04T08:06:09;10.88;;;2.72;;
37459;SDS011;23318;50.966;5.284;2023-06-04T08:08:35;4.65;;;1.67;;
37459;SDS011;23318;50.966;5.284;2023-06-04T08:11:01;7.45;;;2.78;;
37459;SDS011;23318;50.966;5.284;2023-06-04T08:13:28;4.45;;;2.00;;
37459;SDS011;23318;50.966;5.284;2023-06-04T08:15:53;8.20;;;2.30;;
37459;SDS011;23318;50.966;5.284;2023-06-04T08:18:19;6.10;;;2.17;;
37459;SDS011;23318;50.966;5.284;2023-06-04T08:20:45;3.55;;;2.00;;
37459;SDS011;23318;50.966;5.284;2023-06-04T08:23:10;7.55;;;1.83;;
37459;SDS011;23318;50.966;5.284;2023-06-04T08:25:36;5.47;;;2.15;;
37459;SDS011;23318;50.966;5.284;2023-06-04T08:28:02;6.03;;;1.85;;
37459;SDS011;23318;50.966;5.284;2023-06-04T08:30:28;2.63;;;1.58;;
37459;SDS011;23318;50.966;5.284;2023-06-04T08:32:54;5.32;;;1.73;;
37459;SDS011;23318;50.966;5.284;2023-06-04T08:35:20;5.25;;;1.88;;
37459;SDS011;23318;50.966;5.284;2023-06-04T08:37:46;5.78;;;1.95;;
37459;SDS011;23318;50.966;5.284;2023-06-04T08:40:11;6.35;;;1.60;;
37459;SDS011;23318;50.966;5.284;2023-06-04T08:42:40;6.95;;;1.98;;
37459;SDS011;23318;50.966;5.284;2023-06-04T08:45:10;8.05;;;2.00;;
37459;SDS011;23318;50.966;5.284;2023-06-04T08:47:43;3.72;;;2.08;;
37459;SDS011;23318;50.966;5.284;2023-06-04T08:50:10;4.28;;;1.85;;
37459;SDS011;23318;50.966;5.284;2023-06-04T08:52:37;4.53;;;1.65;;
37459;SDS011;23318;50.966;5.284;2023-06-04T08:55:04;6.13;;;1.83;;
37459;SDS011;23318;50.966;5.284;2023-06-04T08:57:31;6.22;;;1.63;;
37459;SDS011;23318;50.966;5.284;2023-06-04T08:59:56;7.50;;;1.65;;
37459;SDS011;23318;50.966;5.284;2023-06-04T09:02:22;11.07;;;2.10;;
37459;SDS011;23318;50.966;5.284;2023-06-04T09:04:50;4.20;;;1.50;;
37459;SDS011;23318;50.966;5.284;2023-06-04T09:07:16;2.80;;;1.60;;
37459;SDS011;23318;50.966;5.284;2023-06-04T09:09:42;5.65;;;1.85;;
37459;SDS011;23318;50.966;5.284;2023-06-04T09:12:11;3.65;;;1.50;;
37459;SDS011;23318;50.966;5.284;2023-06-04T09:14:44;3.30;;;1.85;;
37459;SDS011;23318;50.966;5.284;2023-06-04T09:17:10;6.60;;;2.00;;
37459;SDS011;23318;50.966;5.284;2023-06-04T09:19:35;8.23;;;2.10;;
37459;SDS011;23318;50.966;5.284;2023-06-04T09:22:01;4.43;;;1.65;;
37459;SDS011;23318;50.966;5.284;2023-06-04T09:24:40;9.02;;;1.83;;
37459;SDS011;23318;50.966;5.284;2023-06-04T09:27:21;5.13;;;1.63;;
37459;SDS011;23318;50.966;5.284;2023-06-04T09:29:53;4.38;;;1.60;;
37459;SDS011;23318;50.966;5.284;2023-06-04T09:32:24;7.88;;;1.73;;
37459;SDS011;23318;50.966;5.284;2023-06-04T09:34:52;3.35;;;2.08;;
37459;SDS011;23318;50.966;5.284;2023-06-04T09:37:18;4.03;;;1.77;;
37459;SDS011;23318;50.966;5.284;2023-06-04T09:39:57;4.82;;;1.58;;
37459;SDS011;23318;50.966;5.284;2023-06-04T09:42:23;7.05;;;1.98;;
37459;SDS011;23318;50.966;5.284;2023-06-04T09:44:49;3.67;;;1.67;;
37459;SDS011;23318;50.966;5.284;2023-06-04T09:47:15;2.65;;;1.30;;
37459;SDS011;23318;50.966;5.284;2023-06-04T09:49:44;3.80;;;2.00;;
37459;SDS011;23318;50.966;5.284;2023-06-04T09:52:11;8.23;;;1.80;;
37459;SDS011;23318;50.966;5.284;2023-06-04T09:54:38;5.45;;;1.55;;
37459;SDS011;23318;50.966;5.284;2023-06-04T09:57:18;2.90;;;1.45;;
37459;SDS011;23318;50.966;5.284;2023-06-04T09:59:45;2.50;;;1.38;;
37459;SDS011;23318;50.966;5.284;2023-06-04T10:02:12;6.35;;;1.60;;
37459;SDS011;23318;50.966;5.284;2023-06-04T10:04:41;5.85;;;1.30;;
37459;SDS011;23318;50.966;5.284;2023-06-04T10:07:11;2.30;;;1.40;;
37459;SDS011;23318;50.966;5.284;2023-06-04T10:09:38;8.85;;;1.77;;
37459;SDS011;23318;50.966;5.284;2023-06-04T10:12:11;4.47;;;1.50;;
37459;SDS011;23318;50.966;5.284;2023-06-04T10:14:47;5.10;;;1.95;;
37459;SDS011;23318;50.966;5.284;2023-06-04T10:17:17;2.85;;;1.40;;
37459;SDS011;23318;50.966;5.284;2023-06-04T10:19:47;3.08;;;1.70;;
37459;SDS011;23318;50.966;5.284;2023-06-04T10:22:17;2.75;;;1.30;;
37459;SDS011;23318;50.966;5.284;2023-06-04T10:24:43;5.15;;;1.50;;
37459;SDS011;23318;50.966;5.284;2023-06-04T10:27:10;4.80;;;2.17;;
37459;SDS011;23318;50.966;5.284;2023-06-04T10:29:38;7.43;;;1.83;;
37459;SDS011;23318;50.966;5.284;2023-06-04T10:32:04;3.70;;;1.98;;
37459;SDS011;23318;50.966;5.284;2023-06-04T10:34:30;3.00;;;1.92;;
37459;SDS011;23318;50.966;5.284;2023-06-04T10:36:56;10.15;;;1.77;;
37459;SDS011;23318;50.966;5.284;2023-06-04T10:39:25;4.07;;;1.50;;
37459;SDS011;23318;50.966;5.284;2023-06-04T10:42:02;5.28;;;1.67;;
37459;SDS011;23318;50.966;5.284;2023-06-04T10:44:30;3.35;;;1.40;;
37459;SDS011;23318;50.966;5.284;2023-06-04T10:46:56;1.92;;;1.10;;
37459;SDS011;23318;50.966;5.284;2023-06-04T10:49:26;5.68;;;1.35;;
37459;SDS011;23318;50.966;5.284;2023-06-04T10:51:53;5.03;;;1.42;;
37459;SDS011;23318;50.966;5.284;2023-06-04T10:54:24;2.72;;;1.42;;
37459;SDS011;23318;50.966;5.284;2023-06-04T10:56:51;4.18;;;1.65;;
37459;SDS011;23318;50.966;5.284;2023-06-04T10:59:18;5.72;;;1.75;;
37459;SDS011;23318;50.966;5.284;2023-06-04T11:01:44;5.25;;;1.35;;
37459;SDS011;23318;50.966;5.284;2023-06-04T11:04:21;4.22;;;1.40;;
37459;SDS011;23318;50.966;5.284;2023-06-04T11:06:47;3.50;;;1.45;;
37459;SDS011;23318;50.966;5.284;2023-06-04T11:09:25;3.78;;;1.50;;
37459;SDS011;23318;50.966;5.284;2023-06-04T11:11:58;3.33;;;1.70;;
37459;SDS011;23318;50.966;5.284;2023-06-04T11:14:24;4.60;;;1.58;;
37459;SDS011;23318;50.966;5.284;2023-06-04T11:16:50;11.60;;;1.80;;
37459;SDS011;23318;50.966;5.284;2023-06-04T11:19:16;7.05;;;1.90;;
37459;SDS011;23318;50.966;5.284;2023-06-04T11:21:43;2.42;;;1.48;;
37459;SDS011;23318;50.966;5.284;2023-06-04T11:24:11;3.35;;;1.30;;
37459;SDS011;23318;50.966;5.284;2023-06-04T11:26:37;5.68;;;1.85;;
37459;SDS011;23318;50.966;5.284;2023-06-04T11:29:07;8.98;;;1.90;;
37459;SDS011;23318;50.966;5.284;2023-06-04T11:34:09;8.50;;;1.50;;
37459;SDS011;23318;50.966;5.284;2023-06-04T11:36:38;3.72;;;1.50;;
37459;SDS011;23318;50.966;5.284;2023-06-04T11:39:04;6.30;;;1.13;;
37459;SDS011;23318;50.966;5.284;2023-06-04T11:41:32;3.20;;;1.40;;
37459;SDS011;23318;50.966;5.284;2023-06-04T11:44:01;2.45;;;1.10;;
37459;SDS011;23318;50.966;5.284;2023-06-04T11:46:43;2.67;;;1.45;;
37459;SDS011;23318;50.966;5.284;2023-06-04T11:49:15;6.90;;;1.55;;
37459;SDS011;23318;50.966;5.284;2023-06-04T11:51:46;3.05;;;1.60;;
37459;SDS011;23318;50.966;5.284;2023-06-04T11:54:13;2.95;;;1.67;;
37459;SDS011;23318;50.966;5.284;2023-06-04T11:56:43;4.05;;;1.60;;
37459;SDS011;23318;50.966;5.284;2023-06-04T11:59:17;6.60;;;1.88;;
37459;SDS011;23318;50.966;5.284;2023-06-04T12:01:44;5.30;;;1.70;;
37459;SDS011;23318;50.966;5.284;2023-06-04T12:04:17;4.72;;;1.48;;
37459;SDS011;23318;50.966;5.284;2023-06-04T12:06:53;8.40;;;1.40;;
37459;SDS011;23318;50.966;5.284;2023-06-04T12:09:22;3.65;;;1.60;;
37459;SDS011;23318;50.966;5.284;2023-06-04T12:11:48;5.28;;;1.70;;
37459;SDS011;23318;50.966;5.284;2023-06-04T12:14:17;4.20;;;1.23;;
37459;SDS011;23318;50.966;5.284;2023-06-04T12:17:02;3.70;;;1.48;;
37459;SDS011;23318;50.966;5.284;2023-06-04T12:19:31;10.75;;;1.50;;
37459;SDS011;23318;50.966;5.284;2023-06-04T12:22:03;6.32;;;1.73;;
37459;SDS011;23318;50.966;5.284;2023-06-04T12:24:31;3.38;;;1.30;;
37459;SDS011;23318;50.966;5.284;2023-06-04T12:27:05;5.35;;;1.00;;
37459;SDS011;23318;50.966;5.284;2023-06-04T12:29:31;4.78;;;1.48;;
37459;SDS011;23318;50.966;5.284;2023-06-04T12:32:16;2.88;;;1.45;;
37459;SDS011;23318;50.966;5.284;2023-06-04T12:34:42;3.67;;;1.73;;
37459;SDS011;23318;50.966;5.284;2023-06-04T12:37:07;6.22;;;1.60;;
37459;SDS011;23318;50.966;5.284;2023-06-04T12:39:36;3.22;;;1.60;;
37459;SDS011;23318;50.966;5.284;2023-06-04T12:42:05;3.70;;;1.27;;
37459;SDS011;23318;50.966;5.284;2023-06-04T12:44:33;3.30;;;1.77;;
37459;SDS011;23318;50.966;5.284;2023-06-04T12:47:01;3.33;;;1.60;;
37459;SDS011;23318;50.966;5.284;2023-06-04T12:49:28;4.60;;;1.52;;
37459;SDS011;23318;50.966;5.284;2023-06-04T12:51:53;3.88;;;1.50;;
37459;SDS011;23318;50.966;5.284;2023-06-04T12:54:19;3.25;;;1.55;;
37459;SDS011;23318;50.966;5.284;2023-06-04T12:56:44;5.18;;;1.63;;
37459;SDS011;23318;50.966;5.284;2023-06-04T12:59:10;3.85;;;1.60;;
37459;SDS011;23318;50.966;5.284;2023-06-04T13:01:36;9.48;;;1.70;;
37459;SDS011;23318;50.966;5.284;2023-06-04T13:04:05;5.22;;;1.75;;
37459;SDS011;23318;50.966;5.284;2023-06-04T13:06:31;3.40;;;1.65;;
37459;SDS011;23318;50.966;5.284;2023-06-04T13:08:57;4.68;;;1.30;;
37459;SDS011;23318;50.966;5.284;2023-06-04T13:11:22;4.43;;;1.55;;
37459;SDS011;23318;50.966;5.284;2023-06-04T13:13:49;6.18;;;1.60;;
37459;SDS011;23318;50.966;5.284;2023-06-04T13:16:15;5.28;;;1.33;;
37459;SDS011;23318;50.966;5.284;2023-06-04T13:18:40;3.10;;;1.45;;
37459;SDS011;23318;50.966;5.284;2023-06-04T13:21:06;4.78;;;1.50;;
37459;SDS011;23318;50.966;5.284;2023-06-04T13:23:32;4.60;;;1.35;;
37459;SDS011;23318;50.966;5.284;2023-06-04T13:25:57;5.80;;;1.88;;
37459;SDS011;23318;50.966;5.284;2023-06-04T13:28:23;2.50;;;1.48;;
37459;SDS011;23318;50.966;5.284;2023-06-04T13:30:49;5.72;;;1.60;;
37459;SDS011;23318;50.966;5.284;2023-06-04T13:33:14;6.72;;;1.83;;
37459;SDS011;23318;50.966;5.284;2023-06-04T13:35:41;3.55;;;1.48;;
37459;SDS011;23318;50.966;5.284;2023-06-04T13:38:07;1.67;;;1.33;;
37459;SDS011;23318;50.966;5.284;2023-06-04T13:40:36;3.17;;;1.48;;
37459;SDS011;23318;50.966;5.284;2023-06-04T13:43:01;9.65;;;1.70;;
37459;SDS011;23318;50.966;5.284;2023-06-04T13:45:27;4.53;;;1.50;;
37459;SDS011;23318;50.966;5.284;2023-06-04T13:47:53;3.78;;;1.40;;
37459;SDS011;23318;50.966;5.284;2023-06-04T13:50:19;4.68;;;1.35;;
37459;SDS011;23318;50.966;5.284;2023-06-04T13:52:45;3.83;;;1.38;;
37459;SDS011;23318;50.966;5.284;2023-06-04T13:55:12;4.60;;;1.55;;
37459;SDS011;23318;50.966;5.284;2023-06-04T13:57:38;6.68;;;1.55;;
37459;SDS011;23318;50.966;5.284;2023-06-04T14:00:05;2.35;;;1.48;;
37459;SDS011;23318;50.966;5.284;2023-06-04T14:02:31;3.83;;;1.83;;
37459;SDS011;23318;50.966;5.284;2023-06-04T14:04:57;4.88;;;1.40;;
37459;SDS011;23318;50.966;5.284;2023-06-04T14:07:23;1.98;;;1.00;;
37459;SDS011;23318;50.966;5.284;2023-06-04T14:09:48;7.15;;;1.42;;
37459;SDS011;23318;50.966;5.284;2023-06-04T14:12:19;2.05;;;1.15;;
37459;SDS011;23318;50.966;5.284;2023-06-04T14:14:48;3.42;;;1.40;;
37459;SDS011;23318;50.966;5.284;2023-06-04T14:17:14;1.65;;;1.35;;
37459;SDS011;23318;50.966;5.284;2023-06-04T14:19:39;2.90;;;1.50;;
37459;SDS011;23318;50.966;5.284;2023-06-04T14:22:06;3.92;;;1.10;;
37459;SDS011;23318;50.966;5.284;2023-06-04T14:24:31;6.43;;;1.23;;
37459;SDS011;23318;50.966;5.284;2023-06-04T14:26:57;2.25;;;1.30;;
37459;SDS011;23318;50.966;5.284;2023-06-04T14:29:23;4.03;;;1.55;;
37459;SDS011;23318;50.966;5.284;2023-06-04T14:31:49;2.67;;;1.33;;
37459;SDS011;23318;50.966;5.284;2023-06-04T14:34:14;3.08;;;1.20;;
37459;SDS011;23318;50.966;5.284;2023-06-04T14:36:40;5.60;;;1.40;;
37459;SDS011;23318;50.966;5.284;2023-06-04T14:39:06;5.00;;;1.40;;
37459;SDS011;23318;50.966;5.284;2023-06-04T14:41:32;3.72;;;1.50;;
37459;SDS011;23318;50.966;5.284;2023-06-04T14:43:58;2.58;;;1.30;;
37459;SDS011;23318;50.966;5.284;2023-06-04T14:46:24;1.58;;;1.45;;
37459;SDS011;23318;50.966;5.284;2023-06-04T14:48:50;3.60;;;1.20;;
37459;SDS011;23318;50.966;5.284;2023-06-04T14:51:16;6.55;;;1.80;;
37459;SDS011;23318;50.966;5.284;2023-06-04T14:53:41;6.18;;;1.58;;
37459;SDS011;23318;50.966;5.284;2023-06-04T14:56:07;3.75;;;1.70;;
37459;SDS011;23318;50.966;5.284;2023-06-04T14:58:33;2.75;;;1.73;;
37459;SDS011;23318;50.966;5.284;2023-06-04T15:00:59;3.63;;;1.60;;